sensor_id;sensor_type;location;lat;lon;timestamp;pressure;altitude;pressure_sealevel;temperature;humidity
46412;BME280;32113;42.012;24.870;2023-07-29T00:00:46;98698.72;;;24.33;31.90
46412;BME280;32113;42.012;24.870;2023-07-29T00:03:11;98700.28;;;24.35;31.82
46412;BME280;32113;42.012;24.870;2023-07-29T00:05:37;98703.47;;;24.52;31.71
46412;BME280;32113;42.012;24.870;2023-07-29T00:08:02;98699.41;;;24.59;31.42
46412;BME280;32113;42.012;24.870;2023-07-29T00:10:28;98699.56;;;24.69;31.69
46412;BME280;32113;42.012;24.870;2023-07-29T00:12:53;98697.72;;;24.83;30.93
46412;BME280;32113;42.012;24.870;2023-07-29T00:15:18;98698.94;;;24.90;30.91
46412;BME280;32113;42.012;24.870;2023-07-29T00:17:44;98696.78;;;24.84;30.93
46412;BME280;32113;42.012;24.870;2023-07-29T00:20:09;98689.31;;;24.66;30.99
46412;BME280;32113;42.012;24.870;2023-07-29T00:22:34;98693.69;;;24.65;31.12
46412;BME280;32113;42.012;24.870;2023-07-29T00:25:00;98692.72;;;24.55;31.38
46412;BME280;32113;42.012;24.870;2023-07-29T00:27:25;98695.41;;;24.66;31.29
46412;BME280;32113;42.012;24.870;2023-07-29T00:29:51;98696.91;;;24.58;31.62
46412;BME280;32113;42.012;24.870;2023-07-29T00:32:16;98704.16;;;24.43;31.68
46412;BME280;32113;42.012;24.870;2023-07-29T00:34:41;98707.66;;;24.30;31.82
46412;BME280;32113;42.012;24.870;2023-07-29T00:37:07;98708.66;;;24.16;32.27
46412;BME280;32113;42.012;24.870;2023-07-29T00:39:32;98704.16;;;24.18;32.36
46412;BME280;32113;42.012;24.870;2023-07-29T00:41:58;98693.88;;;24.15;32.93
46412;BME280;32113;42.012;24.870;2023-07-29T00:44:23;98699.38;;;24.12;32.64
46412;BME280;32113;42.012;24.870;2023-07-29T00:46:49;98702.47;;;24.04;32.83
46412;BME280;32113;42.012;24.870;2023-07-29T00:49:15;98699.72;;;24.19;32.50
46412;BME280;32113;42.012;24.870;2023-07-29T00:51:40;98704.88;;;24.07;32.42
46412;BME280;32113;42.012;24.870;2023-07-29T00:54:06;98715.75;;;23.89;32.68
46412;BME280;32113;42.012;24.870;2023-07-29T00:56:31;98710.50;;;23.89;32.96
46412;BME280;32113;42.012;24.870;2023-07-29T00:58:56;98703.28;;;23.93;32.76
46412;BME280;32113;42.012;24.870;2023-07-29T01:01:26;98696.75;;;23.99;32.61
46412;BME280;32113;42.012;24.870;2023-07-29T01:03:52;98686.44;;;24.09;32.70
46412;BME280;32113;42.012;24.870;2023-07-29T01:06:23;98693.06;;;24.14;32.70
46412;BME280;32113;42.012;24.870;2023-07-29T01:08:59;98693.56;;;23.82;33.33
46412;BME280;32113;42.012;24.870;2023-07-29T01:12:11;98701.56;;;23.68;33.47
46412;BME280;32113;42.012;24.870;2023-07-29T01:14:21;98700.44;;;23.46;33.83
46412;BME280;32113;42.012;24.870;2023-07-29T01:16:55;98687.25;;;23.47;34.12
46412;BME280;32113;42.012;24.870;2023-07-29T01:19:42;98685.88;;;23.29;34.26
46412;BME280;32113;42.012;24.870;2023-07-29T01:22:08;98693.31;;;23.22;34.62
46412;BME280;32113;42.012;24.870;2023-07-29T01:24:33;98687.66;;;23.28;34.43
46412;BME280;32113;42.012;24.870;2023-07-29T01:26:59;98691.13;;;23.29;34.63
46412;BME280;32113;42.012;24.870;2023-07-29T01:29:26;98686.50;;;23.32;34.14
46412;BME280;32113;42.012;24.870;2023-07-29T01:31:51;98689.97;;;23.46;34.02
46412;BME280;32113;42.012;24.870;2023-07-29T01:36:47;98698.53;;;23.61;34.13
46412;BME280;32113;42.012;24.870;2023-07-29T01:39:14;98702.34;;;23.44;34.43
46412;BME280;32113;42.012;24.870;2023-07-29T01:41:42;98706.41;;;23.48;34.26
46412;BME280;32113;42.012;24.870;2023-07-29T01:44:08;98712.81;;;23.44;34.47
46412;BME280;32113;42.012;24.870;2023-07-29T01:46:34;98706.81;;;23.29;34.76
46412;BME280;32113;42.012;24.870;2023-07-29T01:48:59;98705.88;;;23.17;35.20
46412;BME280;32113;42.012;24.870;2023-07-29T01:51:25;98698.97;;;23.03;35.49
46412;BME280;32113;42.012;24.870;2023-07-29T01:53:50;98700.34;;;22.82;35.93
46412;BME280;32113;42.012;24.870;2023-07-29T01:56:15;98705.00;;;22.77;35.91
46412;BME280;32113;42.012;24.870;2023-07-29T01:58:40;98709.94;;;22.69;36.13
46412;BME280;32113;42.012;24.870;2023-07-29T02:01:06;98704.03;;;22.25;36.97
46412;BME280;32113;42.012;24.870;2023-07-29T02:03:31;98703.69;;;22.16;37.19
46412;BME280;32113;42.012;24.870;2023-07-29T02:05:56;98698.53;;;22.15;37.33
46412;BME280;32113;42.012;24.870;2023-07-29T02:08:22;98705.56;;;22.14;37.40
46412;BME280;32113;42.012;24.870;2023-07-29T02:10:47;98703.47;;;22.20;37.31
46412;BME280;32113;42.012;24.870;2023-07-29T02:13:13;98697.75;;;22.27;37.19
46412;BME280;32113;42.012;24.870;2023-07-29T02:15:39;98698.28;;;22.33;37.30
46412;BME280;32113;42.012;24.870;2023-07-29T02:18:04;98705.66;;;22.53;36.53
46412;BME280;32113;42.012;24.870;2023-07-29T02:20:31;98701.13;;;22.57;36.54
46412;BME280;32113;42.012;24.870;2023-07-29T02:22:56;98702.31;;;22.51;36.66
46412;BME280;32113;42.012;24.870;2023-07-29T02:25:22;98708.75;;;22.60;36.76
46412;BME280;32113;42.012;24.870;2023-07-29T02:27:47;98710.22;;;22.64;37.07
46412;BME280;32113;42.012;24.870;2023-07-29T02:30:12;98718.06;;;22.64;36.51
46412;BME280;32113;42.012;24.870;2023-07-29T02:32:37;98715.75;;;22.60;36.48
46412;BME280;32113;42.012;24.870;2023-07-29T02:35:03;98722.06;;;22.42;36.44
46412;BME280;32113;42.012;24.870;2023-07-29T02:37:28;98719.63;;;22.54;36.60
46412;BME280;32113;42.012;24.870;2023-07-29T02:39:54;98722.94;;;22.56;36.62
46412;BME280;32113;42.012;24.870;2023-07-29T02:42:19;98725.38;;;22.59;36.60
46412;BME280;32113;42.012;24.870;2023-07-29T02:44:44;98727.78;;;22.35;36.98
46412;BME280;32113;42.012;24.870;2023-07-29T02:47:09;98738.22;;;22.35;37.34
46412;BME280;32113;42.012;24.870;2023-07-29T02:49:35;98732.19;;;22.34;37.38
46412;BME280;32113;42.012;24.870;2023-07-29T02:52:00;98735.91;;;22.30;37.05
46412;BME280;32113;42.012;24.870;2023-07-29T02:54:25;98730.50;;;22.33;37.19
46412;BME280;32113;42.012;24.870;2023-07-29T02:56:51;98726.91;;;22.21;37.43
46412;BME280;32113;42.012;24.870;2023-07-29T02:59:16;98728.41;;;22.11;37.74
46412;BME280;32113;42.012;24.870;2023-07-29T03:01:42;98727.50;;;21.97;37.96
46412;BME280;32113;42.012;24.870;2023-07-29T03:04:07;98727.28;;;22.15;37.90
46412;BME280;32113;42.012;24.870;2023-07-29T03:06:33;98727.09;;;22.18;37.99
46412;BME280;32113;42.012;24.870;2023-07-29T03:08:58;98740.28;;;22.02;37.88
46412;BME280;32113;42.012;24.870;2023-07-29T03:11:23;98730.38;;;22.07;37.43
46412;BME280;32113;42.012;24.870;2023-07-29T03:13:49;98725.69;;;21.85;38.14
46412;BME280;32113;42.012;24.870;2023-07-29T03:16:15;98722.50;;;21.65;38.52
46412;BME280;32113;42.012;24.870;2023-07-29T03:18:41;98727.44;;;21.70;38.43
46412;BME280;32113;42.012;24.870;2023-07-29T03:21:07;98731.25;;;21.78;38.64
46412;BME280;32113;42.012;24.870;2023-07-29T03:23:33;98729.41;;;21.81;38.35
46412;BME280;32113;42.012;24.870;2023-07-29T03:25:59;98733.88;;;21.78;38.58
46412;BME280;32113;42.012;24.870;2023-07-29T03:28:28;98737.72;;;21.87;38.15
46412;BME280;32113;42.012;24.870;2023-07-29T03:30:54;98747.97;;;21.76;38.44
46412;BME280;32113;42.012;24.870;2023-07-29T03:33:19;98752.53;;;21.72;38.25
46412;BME280;32113;42.012;24.870;2023-07-29T03:35:45;98756.25;;;21.83;38.35
46412;BME280;32113;42.012;24.870;2023-07-29T03:38:13;98751.41;;;21.91;38.46
46412;BME280;32113;42.012;24.870;2023-07-29T03:40:38;98753.53;;;21.99;37.72
46412;BME280;32113;42.012;24.870;2023-07-29T03:43:04;98757.75;;;21.87;38.08
46412;BME280;32113;42.012;24.870;2023-07-29T03:45:29;98758.41;;;21.76;38.04
46412;BME280;32113;42.012;24.870;2023-07-29T03:47:55;98756.47;;;21.79;38.06
46412;BME280;32113;42.012;24.870;2023-07-29T03:50:20;98752.44;;;21.88;38.08
46412;BME280;32113;42.012;24.870;2023-07-29T03:52:45;98754.66;;;21.95;38.55
46412;BME280;32113;42.012;24.870;2023-07-29T03:55:11;98754.66;;;21.95;38.05
46412;BME280;32113;42.012;24.870;2023-07-29T03:57:36;98762.00;;;22.17;37.68
46412;BME280;32113;42.012;24.870;2023-07-29T04:00:02;98754.66;;;22.37;37.16
46412;BME280;32113;42.012;24.870;2023-07-29T04:02:27;98765.19;;;22.35;37.29
46412;BME280;32113;42.012;24.870;2023-07-29T04:04:52;98769.53;;;22.49;37.18
46412;BME280;32113;42.012;24.870;2023-07-29T04:07:17;98769.28;;;22.54;36.87
46412;BME280;32113;42.012;24.870;2023-07-29T04:09:43;98773.63;;;22.53;36.85
46412;BME280;32113;42.012;24.870;2023-07-29T04:12:08;98777.78;;;22.43;36.95
46412;BME280;32113;42.012;24.870;2023-07-29T04:14:34;98781.31;;;22.56;37.00
46412;BME280;32113;42.012;24.870;2023-07-29T04:16:59;98782.63;;;22.77;36.78
46412;BME280;32113;42.012;24.870;2023-07-29T04:19:24;98782.44;;;22.80;36.79
46412;BME280;32113;42.012;24.870;2023-07-29T04:21:49;98780.00;;;22.77;36.77
46412;BME280;32113;42.012;24.870;2023-07-29T04:24:15;98779.78;;;22.52;37.13
46412;BME280;32113;42.012;24.870;2023-07-29T04:26:41;98775.91;;;22.60;36.94
46412;BME280;32113;42.012;24.870;2023-07-29T04:29:06;98781.31;;;22.56;37.22
46412;BME280;32113;42.012;24.870;2023-07-29T04:31:31;98779.75;;;22.67;36.85
46412;BME280;32113;42.012;24.870;2023-07-29T04:33:57;98779.69;;;22.68;36.66
46412;BME280;32113;42.012;24.870;2023-07-29T04:36:22;98787.16;;;22.88;36.89
46412;BME280;32113;42.012;24.870;2023-07-29T04:38:47;98780.78;;;22.92;36.65
46412;BME280;32113;42.012;24.870;2023-07-29T04:41:12;98783.81;;;22.99;36.42
46412;BME280;32113;42.012;24.870;2023-07-29T04:43:38;98777.13;;;22.54;37.13
46412;BME280;32113;42.012;24.870;2023-07-29T04:46:05;98787.16;;;22.60;37.11
46412;BME280;32113;42.012;24.870;2023-07-29T04:48:31;98785.03;;;22.25;37.12
46412;BME280;32113;42.012;24.870;2023-07-29T04:50:56;98793.31;;;22.31;37.37
46412;BME280;32113;42.012;24.870;2023-07-29T04:53:22;98797.41;;;22.36;37.36
46412;BME280;32113;42.012;24.870;2023-07-29T04:55:47;98789.16;;;22.42;37.20
46412;BME280;32113;42.012;24.870;2023-07-29T04:58:12;98778.31;;;22.48;37.28
46412;BME280;32113;42.012;24.870;2023-07-29T05:00:38;98783.56;;;22.76;37.10
46412;BME280;32113;42.012;24.870;2023-07-29T05:03:03;98784.84;;;22.96;36.66
46412;BME280;32113;42.012;24.870;2023-07-29T05:05:28;98771.91;;;23.07;36.34
46412;BME280;32113;42.012;24.870;2023-07-29T05:07:53;98780.72;;;23.19;36.38
46412;BME280;32113;42.012;24.870;2023-07-29T05:10:19;98787.84;;;23.30;35.99
46412;BME280;32113;42.012;24.870;2023-07-29T05:12:44;98784.00;;;23.49;35.43
46412;BME280;32113;42.012;24.870;2023-07-29T05:15:09;98792.91;;;23.59;35.32
46412;BME280;32113;42.012;24.870;2023-07-29T05:17:35;98786.50;;;23.64;35.38
46412;BME280;32113;42.012;24.870;2023-07-29T05:20:01;98787.00;;;23.82;35.47
46412;BME280;32113;42.012;24.870;2023-07-29T05:22:26;98782.03;;;24.03;34.94
46412;BME280;32113;42.012;24.870;2023-07-29T05:24:51;98783.38;;;24.22;34.76
46412;BME280;32113;42.012;24.870;2023-07-29T05:27:16;98781.31;;;24.14;34.43
46412;BME280;32113;42.012;24.870;2023-07-29T05:29:42;98780.59;;;24.12;34.82
46412;BME280;32113;42.012;24.870;2023-07-29T05:32:07;98785.59;;;24.02;34.91
46412;BME280;32113;42.012;24.870;2023-07-29T05:34:32;98784.88;;;24.00;35.10
46412;BME280;32113;42.012;24.870;2023-07-29T05:36:57;98791.97;;;24.24;34.88
46412;BME280;32113;42.012;24.870;2023-07-29T05:39:23;98795.44;;;24.49;34.79
46412;BME280;32113;42.012;24.870;2023-07-29T05:41:49;98799.16;;;24.82;33.98
46412;BME280;32113;42.012;24.870;2023-07-29T05:44:14;98807.63;;;25.10;34.05
46412;BME280;32113;42.012;24.870;2023-07-29T05:46:40;98805.06;;;25.33;34.08
46412;BME280;32113;42.012;24.870;2023-07-29T05:49:05;98809.03;;;25.50;33.70
46412;BME280;32113;42.012;24.870;2023-07-29T05:51:30;98815.84;;;25.64;33.73
46412;BME280;32113;42.012;24.870;2023-07-29T05:53:56;98809.91;;;25.74;32.73
46412;BME280;32113;42.012;24.870;2023-07-29T05:56:22;98814.91;;;25.77;32.34
46412;BME280;32113;42.012;24.870;2023-07-29T05:58:47;98806.31;;;25.86;32.13
46412;BME280;32113;42.012;24.870;2023-07-29T06:01:13;98807.03;;;25.88;32.50
46412;BME280;32113;42.012;24.870;2023-07-29T06:03:38;98796.88;;;25.83;32.45
46412;BME280;32113;42.012;24.870;2023-07-29T06:06:03;98809.19;;;25.83;32.53
46412;BME280;32113;42.012;24.870;2023-07-29T06:08:29;98811.09;;;25.81;32.55
46412;BME280;32113;42.012;24.870;2023-07-29T06:10:54;98806.81;;;25.80;32.80
46412;BME280;32113;42.012;24.870;2023-07-29T06:13:19;98802.50;;;25.90;32.66
46412;BME280;32113;42.012;24.870;2023-07-29T06:15:45;98798.19;;;26.01;32.39
46412;BME280;32113;42.012;24.870;2023-07-29T06:18:10;98789.34;;;26.02;32.20
46412;BME280;32113;42.012;24.870;2023-07-29T06:20:35;98790.06;;;26.04;32.74
46412;BME280;32113;42.012;24.870;2023-07-29T06:23:00;98797.09;;;26.15;32.76
46412;BME280;32113;42.012;24.870;2023-07-29T06:25:27;98795.06;;;26.18;33.10
46412;BME280;32113;42.012;24.870;2023-07-29T06:27:52;98801.97;;;26.31;33.02
46412;BME280;32113;42.012;24.870;2023-07-29T06:30:17;98801.50;;;26.37;31.50
46412;BME280;32113;42.012;24.870;2023-07-29T06:32:43;98793.34;;;26.40;32.85
46412;BME280;32113;42.012;24.870;2023-07-29T06:35:08;98798.94;;;26.47;33.14
46412;BME280;32113;42.012;24.870;2023-07-29T06:37:33;98795.22;;;26.49;32.67
46412;BME280;32113;42.012;24.870;2023-07-29T06:39:59;98792.44;;;26.62;33.16
46412;BME280;32113;42.012;24.870;2023-07-29T06:42:24;98789.88;;;26.72;32.35
46412;BME280;32113;42.012;24.870;2023-07-29T06:44:49;98790.63;;;26.74;31.99
46412;BME280;32113;42.012;24.870;2023-07-29T06:47:14;98795.03;;;26.74;32.37
46412;BME280;32113;42.012;24.870;2023-07-29T06:49:40;98798.97;;;26.80;30.79
46412;BME280;32113;42.012;24.870;2023-07-29T06:52:05;98795.88;;;26.74;31.47
46412;BME280;32113;42.012;24.870;2023-07-29T06:54:30;98792.03;;;26.79;31.58
46412;BME280;32113;42.012;24.870;2023-07-29T06:56:56;98786.56;;;26.92;30.49
46412;BME280;32113;42.012;24.870;2023-07-29T06:59:21;98791.75;;;26.82;31.73
46412;BME280;32113;42.012;24.870;2023-07-29T07:01:46;98795.56;;;26.89;31.05
46412;BME280;32113;42.012;24.870;2023-07-29T07:04:12;98795.66;;;26.99;30.84
46412;BME280;32113;42.012;24.870;2023-07-29T07:06:37;98793.88;;;26.99;30.76
46412;BME280;32113;42.012;24.870;2023-07-29T07:09:03;98791.34;;;26.98;31.63
46412;BME280;32113;42.012;24.870;2023-07-29T07:11:28;98796.94;;;27.05;31.79
46412;BME280;32113;42.012;24.870;2023-07-29T07:13:53;98798.44;;;27.19;31.48
46412;BME280;32113;42.012;24.870;2023-07-29T07:16:19;98783.97;;;27.34;31.74
46412;BME280;32113;42.012;24.870;2023-07-29T07:18:44;98787.25;;;27.58;31.19
46412;BME280;32113;42.012;24.870;2023-07-29T07:21:09;98786.28;;;27.80;30.93
46412;BME280;32113;42.012;24.870;2023-07-29T07:23:35;98784.66;;;27.99;29.95
46412;BME280;32113;42.012;24.870;2023-07-29T07:26:01;98785.81;;;28.16;28.87
46412;BME280;32113;42.012;24.870;2023-07-29T07:28:26;98792.19;;;28.23;28.42
46412;BME280;32113;42.012;24.870;2023-07-29T07:30:51;98788.78;;;28.32;28.60
46412;BME280;32113;42.012;24.870;2023-07-29T07:33:17;98788.94;;;28.41;28.66
46412;BME280;32113;42.012;24.870;2023-07-29T07:35:42;98781.59;;;28.54;28.05
46412;BME280;32113;42.012;24.870;2023-07-29T07:38:07;98766.84;;;28.62;28.02
46412;BME280;32113;42.012;24.870;2023-07-29T07:40:34;98767.41;;;28.75;27.92
46412;BME280;32113;42.012;24.870;2023-07-29T07:43:00;98766.13;;;28.99;28.33
46412;BME280;32113;42.012;24.870;2023-07-29T07:45:26;98760.94;;;29.27;27.94
46412;BME280;32113;42.012;24.870;2023-07-29T07:47:51;98758.81;;;29.50;27.21
46412;BME280;32113;42.012;24.870;2023-07-29T07:50:18;98761.47;;;29.79;27.28
46412;BME280;32113;42.012;24.870;2023-07-29T07:52:43;98751.91;;;29.96;26.74
46412;BME280;32113;42.012;24.870;2023-07-29T07:55:08;98758.69;;;30.26;26.59
46412;BME280;32113;42.012;24.870;2023-07-29T07:57:33;98757.41;;;30.49;25.67
46412;BME280;32113;42.012;24.870;2023-07-29T07:59:59;98753.03;;;30.58;26.10
46412;BME280;32113;42.012;24.870;2023-07-29T08:02:24;98754.38;;;30.80;25.87
46412;BME280;32113;42.012;24.870;2023-07-29T08:04:49;98745.88;;;30.94;25.78
46412;BME280;32113;42.012;24.870;2023-07-29T08:07:15;98748.16;;;31.16;25.59
46412;BME280;32113;42.012;24.870;2023-07-29T08:09:40;98743.16;;;31.39;25.27
46412;BME280;32113;42.012;24.870;2023-07-29T08:12:05;98742.09;;;31.58;25.44
46412;BME280;32113;42.012;24.870;2023-07-29T08:14:31;98737.72;;;31.84;24.60
46412;BME280;32113;42.012;24.870;2023-07-29T08:16:56;98730.81;;;31.99;24.26
46412;BME280;32113;42.012;24.870;2023-07-29T08:19:21;98732.16;;;32.12;23.79
46412;BME280;32113;42.012;24.870;2023-07-29T08:21:47;98726.22;;;32.27;23.52
46412;BME280;32113;42.012;24.870;2023-07-29T08:24:12;98730.41;;;32.46;24.09
46412;BME280;32113;42.012;24.870;2023-07-29T08:26:37;98722.94;;;32.49;23.89
46412;BME280;32113;42.012;24.870;2023-07-29T08:29:03;98713.78;;;32.69;24.05
46412;BME280;32113;42.012;24.870;2023-07-29T08:31:28;98722.22;;;32.89;24.49
46412;BME280;32113;42.012;24.870;2023-07-29T08:33:53;98717.75;;;32.98;23.16
46412;BME280;32113;42.012;24.870;2023-07-29T08:36:18;98716.38;;;33.10;22.52
46412;BME280;32113;42.012;24.870;2023-07-29T08:38:44;98717.88;;;33.13;22.55
46412;BME280;32113;42.012;24.870;2023-07-29T08:44:11;98701.53;;;33.33;23.27
46412;BME280;32113;42.012;24.870;2023-07-29T08:46:38;98695.84;;;33.44;23.13
46412;BME280;32113;42.012;24.870;2023-07-29T08:49:03;98694.78;;;33.62;22.89
46412;BME280;32113;42.012;24.870;2023-07-29T08:51:29;98688.06;;;33.74;22.92
46412;BME280;32113;42.012;24.870;2023-07-29T08:53:56;98688.78;;;33.91;22.10
46412;BME280;32113;42.012;24.870;2023-07-29T08:56:21;98691.38;;;34.08;21.50
46412;BME280;32113;42.012;24.870;2023-07-29T08:58:47;98682.78;;;34.21;22.16
46412;BME280;32113;42.012;24.870;2023-07-29T09:01:13;98688.34;;;34.34;21.80
46412;BME280;32113;42.012;24.870;2023-07-29T09:03:38;98684.75;;;34.42;22.54
46412;BME280;32113;42.012;24.870;2023-07-29T09:06:04;98681.81;;;34.61;20.71
46412;BME280;32113;42.012;24.870;2023-07-29T09:08:30;98677.31;;;34.76;22.10
46412;BME280;32113;42.012;24.870;2023-07-29T09:10:55;98679.25;;;34.82;21.87
46412;BME280;32113;42.012;24.870;2023-07-29T09:13:21;98676.41;;;34.84;21.51
46412;BME280;32113;42.012;24.870;2023-07-29T09:15:47;98677.97;;;34.93;21.96
46412;BME280;32113;42.012;24.870;2023-07-29T09:18:14;98680.72;;;35.00;21.52
46412;BME280;32113;42.012;24.870;2023-07-29T09:20:40;98681.66;;;35.07;20.83
46412;BME280;32113;42.012;24.870;2023-07-29T09:23:07;98678.19;;;35.22;20.99
46412;BME280;32113;42.012;24.870;2023-07-29T09:25:32;98675.03;;;35.33;21.24
46412;BME280;32113;42.012;24.870;2023-07-29T09:28:00;98674.16;;;35.48;20.82
46412;BME280;32113;42.012;24.870;2023-07-29T09:30:26;98677.66;;;35.63;20.63
46412;BME280;32113;42.012;24.870;2023-07-29T09:32:54;98674.69;;;35.73;20.67
46412;BME280;32113;42.012;24.870;2023-07-29T09:35:20;98665.91;;;35.80;19.43
46412;BME280;32113;42.012;24.870;2023-07-29T09:37:45;98656.06;;;35.80;19.59
46412;BME280;32113;42.012;24.870;2023-07-29T09:40:13;98651.00;;;35.85;19.74
46412;BME280;32113;42.012;24.870;2023-07-29T09:42:39;98658.03;;;35.93;20.03
46412;BME280;32113;42.012;24.870;2023-07-29T09:45:04;98651.56;;;36.02;19.29
46412;BME280;32113;42.012;24.870;2023-07-29T09:47:29;98646.72;;;36.13;19.04
46412;BME280;32113;42.012;24.870;2023-07-29T09:49:55;98644.38;;;36.25;19.44
46412;BME280;32113;42.012;24.870;2023-07-29T09:52:21;98646.16;;;36.39;18.41
46412;BME280;32113;42.012;24.870;2023-07-29T09:54:47;98638.94;;;36.40;18.34
46412;BME280;32113;42.012;24.870;2023-07-29T09:57:13;98646.78;;;36.20;18.48
46412;BME280;32113;42.012;24.870;2023-07-29T09:59:39;98633.97;;;36.30;18.97
46412;BME280;32113;42.012;24.870;2023-07-29T10:02:04;98629.34;;;36.46;18.93
46412;BME280;32113;42.012;24.870;2023-07-29T10:04:29;98622.88;;;36.62;19.28
46412;BME280;32113;42.012;24.870;2023-07-29T10:06:56;98627.19;;;36.63;18.84
46412;BME280;32113;42.012;24.870;2023-07-29T10:09:22;98628.84;;;36.64;18.67
46412;BME280;32113;42.012;24.870;2023-07-29T10:11:48;98623.97;;;36.67;18.78
46412;BME280;32113;42.012;24.870;2023-07-29T10:14:15;98627.06;;;36.71;18.85
46412;BME280;32113;42.012;24.870;2023-07-29T10:16:41;98623.06;;;36.60;17.62
46412;BME280;32113;42.012;24.870;2023-07-29T10:19:09;98624.66;;;36.54;18.66
46412;BME280;32113;42.012;24.870;2023-07-29T10:21:36;98621.31;;;36.46;18.77
46412;BME280;32113;42.012;24.870;2023-07-29T10:24:03;98619.28;;;36.48;19.28
46412;BME280;32113;42.012;24.870;2023-07-29T10:26:31;98626.34;;;36.62;20.19
46412;BME280;32113;42.012;24.870;2023-07-29T10:28:57;98631.19;;;36.74;19.18
46412;BME280;32113;42.012;24.870;2023-07-29T10:31:28;98622.53;;;36.72;18.96
46412;BME280;32113;42.012;24.870;2023-07-29T10:33:54;98610.66;;;36.81;18.98
46412;BME280;32113;42.012;24.870;2023-07-29T10:36:19;98610.66;;;36.81;19.28
46412;BME280;32113;42.012;24.870;2023-07-29T10:38:45;98603.50;;;36.88;19.21
46412;BME280;32113;42.012;24.870;2023-07-29T10:41:10;98606.00;;;36.97;19.07
46412;BME280;32113;42.012;24.870;2023-07-29T10:43:36;98598.41;;;37.00;19.43
46412;BME280;32113;42.012;24.870;2023-07-29T10:46:22;98609.13;;;37.07;18.67
46412;BME280;32113;42.012;24.870;2023-07-29T10:51:22;98602.63;;;37.23;19.04
46412;BME280;32113;42.012;24.870;2023-07-29T10:53:48;98595.19;;;37.18;17.84
46412;BME280;32113;42.012;24.870;2023-07-29T10:56:24;98596.44;;;37.23;18.78
46412;BME280;32113;42.012;24.870;2023-07-29T10:58:49;98584.31;;;37.20;17.76
46412;BME280;32113;42.012;24.870;2023-07-29T11:01:20;98589.47;;;37.22;18.95
46412;BME280;32113;42.012;24.870;2023-07-29T11:06:56;98577.88;;;37.07;18.24
46412;BME280;32113;42.012;24.870;2023-07-29T11:09:39;98584.84;;;37.02;17.93
46412;BME280;32113;42.012;24.870;2023-07-29T11:12:05;98578.84;;;36.93;17.91
46412;BME280;32113;42.012;24.870;2023-07-29T11:14:30;98575.91;;;36.81;17.60
46412;BME280;32113;42.012;24.870;2023-07-29T11:16:56;98569.91;;;36.72;17.97
46412;BME280;32113;42.012;24.870;2023-07-29T11:19:21;98568.06;;;36.66;18.78
46412;BME280;32113;42.012;24.870;2023-07-29T11:21:46;98564.75;;;36.64;18.46
46412;BME280;32113;42.012;24.870;2023-07-29T11:24:16;98557.31;;;36.59;19.00
46412;BME280;32113;42.012;24.870;2023-07-29T11:26:46;98555.63;;;36.51;18.39
46412;BME280;32113;42.012;24.870;2023-07-29T11:29:11;98556.44;;;36.52;19.19
46412;BME280;32113;42.012;24.870;2023-07-29T11:31:40;98549.28;;;36.59;18.97
46412;BME280;32113;42.012;24.870;2023-07-29T11:34:06;98552.22;;;36.64;18.75
46412;BME280;32113;42.012;24.870;2023-07-29T11:36:32;98551.78;;;36.61;18.29
46412;BME280;32113;42.012;24.870;2023-07-29T11:38:57;98553.97;;;36.57;17.96
46412;BME280;32113;42.012;24.870;2023-07-29T11:41:22;98543.91;;;36.52;18.02
46412;BME280;32113;42.012;24.870;2023-07-29T11:43:48;98540.25;;;36.60;18.67
46412;BME280;32113;42.012;24.870;2023-07-29T11:46:13;98541.88;;;36.61;18.84
46412;BME280;32113;42.012;24.870;2023-07-29T11:48:39;98533.31;;;36.66;18.78
46412;BME280;32113;42.012;24.870;2023-07-29T11:51:04;98534.78;;;36.68;18.63
46412;BME280;32113;42.012;24.870;2023-07-29T11:53:29;98533.75;;;36.70;19.30
46412;BME280;32113;42.012;24.870;2023-07-29T11:55:58;98533.13;;;36.67;18.11
46412;BME280;32113;42.012;24.870;2023-07-29T11:58:23;98529.56;;;36.60;17.30
46412;BME280;32113;42.012;24.870;2023-07-29T12:00:48;98529.56;;;36.60;18.46
46412;BME280;32113;42.012;24.870;2023-07-29T12:03:14;98531.41;;;36.60;18.43
46412;BME280;32113;42.012;24.870;2023-07-29T12:05:41;98519.97;;;36.66;18.68
46412;BME280;32113;42.012;24.870;2023-07-29T12:08:06;98516.28;;;36.74;18.92
46412;BME280;32113;42.012;24.870;2023-07-29T12:10:32;98520.81;;;36.80;18.06
46412;BME280;32113;42.012;24.870;2023-07-29T12:12:58;98518.78;;;36.82;17.34
46412;BME280;32113;42.012;24.870;2023-07-29T12:15:24;98524.31;;;36.74;17.25
46412;BME280;32113;42.012;24.870;2023-07-29T12:17:52;98506.63;;;36.73;17.76
46412;BME280;32113;42.012;24.870;2023-07-29T12:20:19;98505.56;;;36.67;17.59
46412;BME280;32113;42.012;24.870;2023-07-29T12:22:45;98513.59;;;36.67;17.56
46412;BME280;32113;42.012;24.870;2023-07-29T12:25:16;98508.81;;;36.62;18.34
46412;BME280;32113;42.012;24.870;2023-07-29T12:27:43;98500.84;;;36.69;17.82
46412;BME280;32113;42.012;24.870;2023-07-29T12:30:08;98495.72;;;36.67;17.42
46412;BME280;32113;42.012;24.870;2023-07-29T12:32:42;98497.50;;;36.60;17.49
46412;BME280;32113;42.012;24.870;2023-07-29T12:35:09;98489.31;;;36.62;17.46
46412;BME280;32113;42.012;24.870;2023-07-29T12:37:34;98485.78;;;36.61;17.39
46412;BME280;32113;42.012;24.870;2023-07-29T12:40:00;98478.81;;;36.60;17.73
46412;BME280;32113;42.012;24.870;2023-07-29T12:42:25;98477.41;;;36.64;17.57
46412;BME280;32113;42.012;24.870;2023-07-29T12:44:50;98480.50;;;36.68;17.34
46412;BME280;32113;42.012;24.870;2023-07-29T12:47:15;98483.94;;;36.62;17.09
46412;BME280;32113;42.012;24.870;2023-07-29T12:49:41;98467.78;;;36.70;17.76
46412;BME280;32113;42.012;24.870;2023-07-29T12:52:06;98479.50;;;36.76;17.61
46412;BME280;32113;42.012;24.870;2023-07-29T12:54:31;98477.63;;;36.70;18.04